Terminal Aerodrome Forecast
Issued by NWS Charleston, WV

Current Version | Previous Version | Text Only | Print | Product List | Glossary Off
Versions: 1 2 3 4 5 6 7 8 9 10 11 12 13 14 15 16 17 18 19 20 21 22 23 24 25 26 27 28

000
FTUS41 KRLX 291700
TAFHTS
TAF
KHTS 291720Z 2918/3018 21011G19KT P6SM SCT060
     FM292000 23011G19KT P6SM BKN045
     FM300000 27011G19KT 6SM -RA BR OVC025
     FM300300 28010G17KT 3SM -RASN OVC015
     FM300500 28010G17KT 2SM -SN OVC015
     FM300800 29010G17KT 4SM -SHSN OVC020
     FM301700 31012G20KT P6SM BKN035=

USA.gov is the U.S. government's official web portal to all federal, state and local government web resources and services.